Time;durP1;ratioP1;P1;durP2;ratioP2;P2;SDS_P1;SDS_P2;PMS_P1;PMS_P2;Temp;Humidity;BMP_temperature;BMP_pressure;BME280_temperature;BME280_humidity;BME280_pressure;Samples;Min_cycle;Max_cycle;Signal;HPM_P1;HPM_P2
2021/03/05 00:00:40;;;;;;;15.15;3.38;;;23.00;99.90;;;;;;6308846;22;19995;-70
2021/03/05 00:03:08;;;;;;;18.23;2.55;;;22.50;99.90;;;;;;6308245;22;20002;-71
2021/03/05 00:05:37;;;;;;;23.23;3.90;;;22.30;99.90;;;;;;6307578;22;20088;-71
2021/03/05 00:08:06;;;;;;;12.75;2.80;;;22.20;99.90;;;;;;6308278;22;20349;-69
2021/03/05 00:10:36;;;;;;;18.10;2.78;;;22.50;99.90;;;;;;6308198;22;20007;-70
2021/03/05 00:13:04;;;;;;;20.10;3.08;;;23.20;99.90;;;;;;6307854;22;20003;-70
2021/03/05 00:15:33;;;;;;;14.90;2.42;;;23.50;99.90;;;;;;6309221;22;20000;-71
2021/03/05 00:18:01;;;;;;;17.75;2.72;;;23.50;99.90;;;;;;6309342;22;20015;-70
2021/03/05 00:20:31;;;;;;;14.10;2.63;;;23.50;99.90;;;;;;6309861;22;20502;-72
2021/03/05 00:22:59;;;;;;;15.88;2.55;;;23.70;99.90;;;;;;6309065;22;20006;-71
2021/03/05 00:25:27;;;;;;;13.77;2.47;;;23.70;99.90;;;;;;6310282;22;20003;-70
2021/03/05 00:27:55;;;;;;;18.08;2.65;;;23.60;99.90;;;;;;6312925;22;19999;-72
2021/03/05 00:30:23;;;;;;;19.55;2.45;;;23.70;99.90;;;;;;6309941;22;20023;-70
2021/03/05 00:32:51;;;;;;;13.60;3.40;;;24.10;99.90;;;;;;6311824;22;20067;-70
2021/03/05 00:35:19;;;;;;;14.45;2.35;;;23.90;99.90;;;;;;6311629;22;20011;-71
2021/03/05 00:37:47;;;;;;;19.08;3.08;;;23.40;99.90;;;;;;6310608;22;20003;-70
2021/03/05 00:40:16;;;;;;;13.90;2.35;;;23.90;99.90;;;;;;6311010;22;20007;-70
2021/03/05 00:42:45;;;;;;;16.00;3.08;;;23.30;99.90;;;;;;6317035;22;20421;-70
2021/03/05 00:45:18;;;;;;;16.33;3.13;;;23.30;99.90;;;;;;6317288;22;20007;-71
2021/03/05 00:47:45;;;;;;;20.48;3.05;;;23.60;99.90;;;;;;6313785;22;20002;-70
2021/03/05 00:50:14;;;;;;;16.45;3.75;;;23.40;99.90;;;;;;6313070;22;20011;-69
2021/03/05 00:52:42;;;;;;;15.57;3.10;;;23.60;99.90;;;;;;6310061;22;20003;-70
2021/03/05 00:55:11;;;;;;;15.93;3.67;;;24.10;99.90;;;;;;6313030;22;20048;-68
2021/03/05 00:57:40;;;;;;;12.98;2.60;;;24.20;99.90;;;;;;6313760;22;20124;-69
2021/03/05 01:00:10;;;;;;;17.75;3.10;;;23.70;99.90;;;;;;6314274;22;20126;-70
2021/03/05 01:02:38;;;;;;;13.13;2.83;;;23.60;99.90;;;;;;6311510;22;20082;-70
2021/03/05 01:05:07;;;;;;;18.75;3.75;;;23.10;99.90;;;;;;6311007;22;20467;-68
2021/03/05 01:07:34;;;;;;;11.07;2.72;;;23.00;99.90;;;;;;6320493;22;20025;-68
2021/03/05 01:10:04;;;;;;;17.92;2.60;;;22.90;99.90;;;;;;6331833;22;20003;-68
2021/03/05 01:12:31;;;;;;;10.32;2.67;;;22.90;99.90;;;;;;6333592;22;19979;-68
2021/03/05 01:15:00;;;;;;;15.93;3.17;;;22.90;99.90;;;;;;6333339;22;19999;-68
2021/03/05 01:17:27;;;;;;;18.27;3.00;;;22.70;99.90;;;;;;6329867;22;20006;-68
2021/03/05 01:19:55;;;;;;;15.18;2.55;;;22.60;99.90;;;;;;6312973;22;19999;-69
2021/03/05 01:22:22;;;;;;;15.52;3.00;;;22.60;99.90;;;;;;6314311;22;20002;-68
2021/03/05 01:24:50;;;;;;;13.25;2.72;;;22.70;99.90;;;;;;6307494;22;20019;-71
2021/03/05 01:30:53;;;;;;;15.68;2.72;;;23.50;99.90;;;;;;6344796;22;20025;-67
2021/03/05 01:33:20;;;;;;;13.40;2.88;;;23.30;99.90;;;;;;6344058;22;20002;-67
2021/03/05 01:35:48;;;;;;;13.68;3.72;;;23.10;99.90;;;;;;6343772;22;20003;-67
2021/03/05 01:38:15;;;;;;;16.70;2.53;;;22.80;99.90;;;;;;6343653;22;20003;-67
2021/03/05 01:40:45;;;;;;;17.77;2.85;;;23.30;99.90;;;;;;6344235;22;20007;-67
2021/03/05 01:43:15;;;;;;;9.75;2.38;;;23.70;99.90;;;;;;6345333;22;20016;-67
2021/03/05 01:45:43;;;;;;;15.18;2.33;;;24.50;99.90;;;;;;6344257;22;20011;-68
2021/03/05 01:48:16;;;;;;;10.43;2.05;;;24.50;99.90;;;;;;6344115;22;20002;-67
2021/03/05 01:50:59;;;;;;;19.05;2.78;;;24.10;99.90;;;;;;6346122;22;20069;-67
2021/03/05 01:53:32;;;;;;;16.63;3.40;;;24.20;99.90;;;;;;6336531;22;20098;-71
2021/03/05 01:56:01;;;;;;;15.80;3.30;;;24.20;99.90;;;;;;6312935;22;20042;-70
2021/03/05 01:58:30;;;;;;;14.23;2.72;;;24.10;99.90;;;;;;6337330;22;20005;-70
2021/03/05 02:01:10;;;;;;;14.90;3.90;;;24.30;99.90;;;;;;6312195;22;20030;-72
2021/03/05 02:03:38;;;;;;;12.25;2.30;;;24.40;99.90;;;;;;6337296;22;20492;-71
2021/03/05 02:06:06;;;;;;;16.38;2.45;;;24.50;99.90;;;;;;6339121;22;20424;-69
2021/03/05 02:08:34;;;;;;;13.05;2.75;;;24.90;99.90;;;;;;6337064;22;20006;-69
2021/03/05 02:11:01;;;;;;;11.57;1.95;;;25.30;99.20;;;;;;6340409;22;19995;-67
2021/03/05 02:13:28;;;;;;;12.55;2.25;;;25.00;99.30;;;;;;6339710;22;20003;-68
2021/03/05 02:15:56;;;;;;;16.48;2.20;;;24.80;99.60;;;;;;6337436;22;20010;-69
2021/03/05 02:18:51;;;;;;;12.00;2.67;;;24.60;99.90;;;;;;6341266;22;20010;-67
2021/03/05 02:21:31;;;;;;;14.18;2.60;;;24.60;99.30;;;;;;6342463;22;20397;-68
2021/03/05 02:24:17;;;;;;;16.58;2.65;;;24.30;99.50;;;;;;6341705;22;20067;-70
2021/03/05 02:27:11;;;;;;;14.60;2.80;;;24.40;99.50;;;;;;6340661;22;20060;-67
2021/03/05 02:30:00;;;;;;;14.98;3.00;;;24.50;99.20;;;;;;6340384;22;20056;-68
2021/03/05 02:32:46;;;;;;;13.57;3.25;;;24.50;99.00;;;;;;6339038;22;20018;-67
2021/03/05 02:35:16;;;;;;;12.07;2.85;;;24.60;98.90;;;;;;6337035;22;20502;-68
2021/03/05 02:37:48;;;;;;;13.30;2.40;;;24.60;99.50;;;;;;6341679;22;20034;-67
2021/03/05 02:40:20;;;;;;;11.10;2.33;;;24.40;98.80;;;;;;6340737;22;20074;-68
2021/03/05 02:42:58;;;;;;;13.77;2.47;;;24.20;99.60;;;;;;6340944;22;20055;-67
2021/03/05 02:45:29;;;;;;;17.00;3.15;;;24.30;99.10;;;;;;6341603;22;20003;-67
2021/03/05 02:48:13;;;;;;;13.30;2.30;;;24.20;99.10;;;;;;6348426;22;20013;-67
2021/03/05 02:50:44;;;;;;;15.75;2.58;;;24.10;99.10;;;;;;6346588;22;20422;-68
2021/03/05 02:53:16;;;;;;;18.17;3.63;;;24.20;99.90;;;;;;6318185;22;20772;-69
2021/03/05 02:55:45;;;;;;;14.02;2.92;;;24.50;99.80;;;;;;6309878;22;20006;-68
2021/03/05 02:58:15;;;;;;;14.77;3.75;;;24.10;99.50;;;;;;6308361;22;20038;-70
2021/03/05 03:00:44;;;;;;;11.73;2.78;;;24.10;99.60;;;;;;6308617;22;20425;-70
2021/03/05 03:03:13;;;;;;;14.00;2.85;;;23.60;99.90;;;;;;6310073;22;20086;-67
2021/03/05 03:05:41;;;;;;;14.52;2.97;;;23.40;99.90;;;;;;6310510;22;20333;-68
2021/03/05 03:08:10;;;;;;;14.45;3.47;;;24.20;99.90;;;;;;6311423;22;19999;-67
2021/03/05 03:10:38;;;;;;;12.65;3.05;;;24.40;99.60;;;;;;6312274;22;20387;-69
2021/03/05 03:13:08;;;;;;;15.13;3.13;;;24.40;99.20;;;;;;6311412;22;20003;-67
2021/03/05 03:15:36;;;;;;;15.60;2.70;;;24.00;99.00;;;;;;6306028;22;20003;-66
2021/03/05 03:18:09;;;;;;;10.57;2.33;;;24.00;99.10;;;;;;6311274;22;20011;-68
2021/03/05 03:20:38;;;;;;;17.15;3.65;;;24.00;99.70;;;;;;6310824;22;19999;-69
2021/03/05 03:23:07;;;;;;;14.55;3.28;;;24.00;98.50;;;;;;6310637;22;20003;-66
2021/03/05 03:25:35;;;;;;;16.95;2.78;;;23.80;99.10;;;;;;6314113;22;20342;-68
2021/03/05 03:28:05;;;;;;;15.00;2.90;;;23.80;99.30;;;;;;6311381;22;20524;-69
2021/03/05 03:30:32;;;;;;;15.18;3.08;;;23.40;99.60;;;;;;6308357;22;20026;-69
2021/03/05 03:33:00;;;;;;;15.18;3.30;;;23.90;99.70;;;;;;6311001;22;20004;-67
2021/03/05 03:35:28;;;;;;;14.95;2.85;;;23.70;99.00;;;;;;6313294;22;19999;-66
2021/03/05 03:38:02;;;;;;;18.53;3.13;;;23.30;99.50;;;;;;6312841;22;20030;-67
2021/03/05 03:40:31;;;;;;;18.17;3.47;;;23.30;99.90;;;;;;6334716;22;20031;-69
2021/03/05 03:42:58;;;;;;;11.93;2.70;;;23.50;99.90;;;;;;6308190;22;19999;-69
2021/03/05 03:45:32;;;;;;;10.88;1.83;;;23.60;98.80;;;;;;6310029;22;20041;-71
2021/03/05 03:48:02;;;;;;;9.45;2.40;;;23.60;99.20;;;;;;6336363;22;20007;-70
2021/03/05 03:50:34;;;;;;;12.48;2.72;;;23.50;99.20;;;;;;6311483;22;20003;-69
2021/03/05 03:53:22;;;;;;;12.27;2.22;;;23.50;98.70;;;;;;6309455;22;20018;-69
2021/03/05 03:55:56;;;;;;;16.52;2.55;;;23.30;98.90;;;;;;6309919;22;19999;-70
2021/03/05 03:58:25;;;;;;;;;;;23.00;99.30;;;;;;6306859;22;20007;-69
2021/03/05 04:00:55;;;;;;;14.18;2.85;;;23.20;99.20;;;;;;6306039;22;19899;-70
2021/03/05 04:03:27;;;;;;;13.10;2.30;;;23.30;99.30;;;;;;6309859;22;20071;-69
2021/03/05 04:05:57;;;;;;;13.32;2.25;;;23.30;99.00;;;;;;6311232;22;20004;-69
2021/03/05 04:08:25;;;;;;;15.18;2.80;;;23.20;98.80;;;;;;6312857;22;20023;-72
2021/03/05 04:10:54;;;;;;;11.32;2.83;;;22.80;99.10;;;;;;6309757;22;19995;-67
2021/03/05 04:13:22;;;;;;;17.98;3.05;;;22.80;99.40;;;;;;6309071;22;20008;-70
2021/03/05 04:15:53;;;;;;;19.90;3.88;;;22.90;99.80;;;;;;6311086;22;20003;-70
2021/03/05 04:18:21;;;;;;;16.25;3.15;;;22.90;99.90;;;;;;6311345;22;19999;-71
2021/03/05 04:20:53;;;;;;;14.10;2.78;;;22.80;99.90;;;;;;6336115;22;20391;-70
2021/03/05 04:23:21;;;;;;;16.38;2.30;;;22.80;99.90;;;;;;6313888;22;20337;-68
2021/03/05 04:25:48;;;;;;;11.60;2.78;;;22.40;99.90;;;;;;6308802;22;20018;-69
2021/03/05 04:28:15;;;;;;;21.52;4.10;;;22.50;99.90;;;;;;6312168;22;20030;-70
2021/03/05 04:30:43;;;;;;;10.10;2.60;;;22.70;99.90;;;;;;6333309;22;20014;-70
2021/03/05 04:33:10;;;;;;;14.30;2.35;;;22.50;99.90;;;;;;6310790;22;20003;-70
2021/03/05 04:35:37;;;;;;;11.85;2.47;;;22.30;99.90;;;;;;6306344;22;20022;-72
2021/03/05 04:38:05;;;;;;;19.05;3.03;;;22.10;99.90;;;;;;6305996;22;20049;-69
2021/03/05 04:40:32;;;;;;;13.18;2.22;;;22.20;99.90;;;;;;6309901;22;20004;-70
2021/03/05 04:42:59;;;;;;;9.23;1.75;;;22.40;99.80;;;;;;6308477;22;20003;-72
2021/03/05 04:45:27;;;;;;;14.27;2.42;;;22.10;99.90;;;;;;6334057;22;20464;-69
2021/03/05 04:47:55;;;;;;;12.73;2.25;;;21.90;99.90;;;;;;6306292;22;20038;-71
2021/03/05 04:50:23;;;;;;;14.90;2.33;;;21.90;99.90;;;;;;6308857;22;19995;-70
2021/03/05 04:52:53;;;;;;;13.13;2.15;;;22.00;99.90;;;;;;6308297;22;20007;-70
2021/03/05 04:55:20;;;;;;;13.30;2.53;;;22.00;99.90;;;;;;6309085;22;20086;-72
2021/03/05 04:57:48;;;;;;;15.00;3.10;;;22.00;99.90;;;;;;6310374;22;19999;-70
2021/03/05 05:00:15;;;;;;;12.85;2.80;;;22.00;99.90;;;;;;6309903;22;19999;-71
2021/03/05 05:02:43;;;;;;;12.05;2.05;;;22.00;99.90;;;;;;6309309;22;19999;-70
2021/03/05 05:05:11;;;;;;;13.45;2.45;;;21.90;99.70;;;;;;6309922;22;20030;-69
2021/03/05 05:07:38;;;;;;;13.55;2.13;;;21.70;99.90;;;;;;6307385;22;20063;-70
2021/03/05 05:10:07;;;;;;;14.35;2.45;;;21.70;99.90;;;;;;6330760;22;20078;-70
2021/03/05 05:12:34;;;;;;;21.13;3.50;;;21.80;99.90;;;;;;6308612;22;20429;-69
2021/03/05 05:15:02;;;;;;;12.93;2.78;;;22.00;99.90;;;;;;6308492;22;20429;-70
2021/03/05 05:17:29;;;;;;;13.88;3.38;;;21.80;99.90;;;;;;6305892;22;20061;-71
2021/03/05 05:19:57;;;;;;;16.27;2.63;;;22.00;99.90;;;;;;6308246;22;20026;-70
2021/03/05 05:22:25;;;;;;;19.88;2.70;;;22.10;99.90;;;;;;6309843;22;19999;-69
2021/03/05 05:24:52;;;;;;;11.32;2.95;;;22.00;99.90;;;;;;6283468;22;20094;-70
2021/03/05 05:27:19;;;;;;;12.38;2.90;;;21.80;99.90;;;;;;6311473;22;20003;-72
2021/03/05 05:29:47;;;;;;;15.73;3.95;;;21.70;99.90;;;;;;6308665;22;20468;-73
2021/03/05 05:32:14;;;;;;;12.70;2.22;;;21.90;99.90;;;;;;6311864;22;20007;-70
2021/03/05 05:34:42;;;;;;;16.25;2.33;;;22.00;99.90;;;;;;6310727;22;20046;-70
2021/03/05 05:37:09;;;;;;;14.75;2.00;;;22.00;99.90;;;;;;6311223;22;20594;-71
2021/03/05 05:39:36;;;;;;;13.45;2.90;;;21.90;99.90;;;;;;6309615;22;20340;-71
2021/03/05 05:42:08;;;;;;;15.82;3.25;;;21.70;99.90;;;;;;6312643;22;20010;-69
2021/03/05 05:44:36;;;;;;;17.25;2.80;;;21.60;99.90;;;;;;6312073;22;20066;-72
2021/03/05 05:47:04;;;;;;;13.30;3.20;;;21.70;99.90;;;;;;6315001;22;20015;-71
2021/03/05 05:49:32;;;;;;;14.52;2.70;;;21.60;99.90;;;;;;6307269;22;20057;-71
2021/03/05 05:52:04;;;;;;;15.98;2.78;;;21.70;99.90;;;;;;6304869;22;20224;-71
2021/03/05 05:54:34;;;;;;;11.82;2.58;;;21.90;99.90;;;;;;6308907;22;20000;-72
2021/03/05 05:57:02;;;;;;;12.00;2.42;;;22.00;99.90;;;;;;6308962;22;20095;-71
2021/03/05 05:59:30;;;;;;;13.82;1.60;;;21.80;99.90;;;;;;6307478;22;19995;-72
2021/03/05 06:01:58;;;;;;;15.30;2.55;;;21.70;99.90;;;;;;6307856;22;20022;-72
2021/03/05 06:04:25;;;;;;;14.32;2.60;;;21.70;99.90;;;;;;6307264;22;20349;-69
2021/03/05 06:06:53;;;;;;;13.48;2.70;;;21.80;99.90;;;;;;6307907;22;20015;-73
2021/03/05 06:09:21;;;;;;;14.85;2.92;;;21.60;99.90;;;;;;6306315;22;20018;-73
2021/03/05 06:11:48;;;;;;;11.85;2.35;;;21.60;99.90;;;;;;6331581;22;20452;-72
2021/03/05 06:14:17;;;;;;;9.60;1.50;;;21.70;99.90;;;;;;6330760;22;20360;-71
2021/03/05 06:17:01;;;;;;;16.33;2.03;;;21.70;99.90;;;;;;6307980;22;20007;-72
2021/03/05 06:19:29;;;;;;;13.38;2.53;;;21.60;99.90;;;;;;6332669;22;20078;-73
2021/03/05 06:21:57;;;;;;;9.82;1.52;;;21.50;99.90;;;;;;6331434;22;20076;-73
2021/03/05 06:24:26;;;;;;;13.73;2.22;;;21.40;99.90;;;;;;6305515;22;20004;-72
2021/03/05 06:27:02;;;;;;;9.80;2.08;;;21.40;99.90;;;;;;6330683;22;20327;-71
2021/03/05 06:29:47;;;;;;;18.73;3.00;;;21.50;99.90;;;;;;6306650;22;20007;-71
2021/03/05 06:32:19;;;;;;;12.48;1.73;;;21.40;99.90;;;;;;6329644;22;20030;-73
2021/03/05 06:34:50;;;;;;;10.80;1.90;;;21.30;99.90;;;;;;6306380;22;20031;-73
2021/03/05 06:37:19;;;;;;;11.15;2.83;;;21.30;99.90;;;;;;6306566;22;20007;-72
2021/03/05 06:40:00;;;;;;;10.10;1.90;;;21.40;99.90;;;;;;6305711;22;20468;-72
2021/03/05 06:42:28;;;;;;;12.85;2.58;;;21.40;99.90;;;;;;6306938;22;20425;-72
2021/03/05 06:44:55;;;;;;;12.10;2.60;;;21.30;99.90;;;;;;6304776;22;20378;-72
2021/03/05 06:47:26;;;;;;;10.93;2.25;;;21.30;99.90;;;;;;6305389;22;20003;-73
2021/03/05 06:49:54;;;;;;;9.82;2.53;;;21.40;99.90;;;;;;6306044;22;19999;-72
2021/03/05 06:52:32;;;;;;;12.65;2.58;;;21.30;99.90;;;;;;6329676;22;20082;-72
2021/03/05 06:55:03;;;;;;;11.50;2.33;;;21.30;99.90;;;;;;6303853;22;20041;-72
2021/03/05 06:57:30;;;;;;;12.10;2.53;;;21.20;99.90;;;;;;6305286;22;20452;-72
2021/03/05 06:59:58;;;;;;;11.85;2.63;;;21.20;99.90;;;;;;6306100;22;20002;-70
2021/03/05 07:02:36;;;;;;;9.23;2.00;;;21.10;99.90;;;;;;6306546;22;20370;-72
2021/03/05 07:05:04;;;;;;;12.60;1.98;;;21.10;99.90;;;;;;6305052;22;20414;-71
2021/03/05 07:07:42;;;;;;;14.68;3.50;;;21.00;99.90;;;;;;6305529;22;19995;-72
2021/03/05 07:10:12;;;;;;;13.35;3.42;;;21.10;99.90;;;;;;6330274;22;20003;-72
2021/03/05 07:12:59;;;;;;;12.43;2.22;;;21.00;99.90;;;;;;6305765;22;20004;-72
2021/03/05 07:15:26;;;;;;;12.48;2.97;;;21.00;99.90;;;;;;6328881;22;20061;-72
2021/03/05 07:17:53;;;;;;;15.70;3.10;;;21.00;99.90;;;;;;6305620;22;20010;-72
2021/03/05 07:20:21;;;;;;;13.23;2.67;;;21.00;99.90;;;;;;6305298;22;19995;-73
2021/03/05 07:22:50;;;;;;;13.45;2.90;;;21.00;99.90;;;;;;6306235;22;20000;-72
2021/03/05 07:25:18;;;;;;;13.55;3.00;;;20.90;99.90;;;;;;6303979;22;20007;-72
2021/03/05 07:27:50;;;;;;;12.85;2.47;;;20.80;99.90;;;;;;6306416;22;20121;-73
2021/03/05 07:30:21;;;;;;;13.93;2.65;;;20.80;99.90;;;;;;6305673;22;19999;-71
2021/03/05 07:32:50;;;;;;;13.90;3.38;;;20.80;99.90;;;;;;6306895;22;19995;-71
2021/03/05 07:35:36;;;;;;;20.10;2.67;;;20.80;99.90;;;;;;6306896;22;20006;-72
2021/03/05 07:38:07;;;;;;;15.35;2.22;;;20.80;99.90;;;;;;6307309;22;19995;-72
2021/03/05 07:40:37;;;;;;;11.82;2.70;;;20.70;99.90;;;;;;6305855;22;20034;-73
2021/03/05 07:43:05;;;;;;;13.30;2.33;;;20.70;99.90;;;;;;6308029;22;20048;-72
2021/03/05 07:45:33;;;;;;;18.13;3.45;;;20.70;99.90;;;;;;6305485;22;20004;-72
2021/03/05 07:48:01;;;;;;;16.38;2.58;;;20.70;99.90;;;;;;6305211;22;20004;-72
2021/03/05 07:50:29;;;;;;;13.20;2.47;;;20.70;99.90;;;;;;6307020;22;20011;-74
2021/03/05 07:52:59;;;;;;;11.93;2.30;;;20.70;99.90;;;;;;6337571;22;20072;-74
2021/03/05 07:55:38;;;;;;;18.02;2.70;;;20.60;99.90;;;;;;6334160;22;20102;-74
2021/03/05 07:58:06;;;;;;;9.38;2.72;;;20.60;99.90;;;;;;6337708;22;20043;-73
2021/03/05 08:00:54;;;;;;;14.73;3.35;;;20.60;99.90;;;;;;6337055;22;20049;-74
2021/03/05 08:03:25;;;;;;;14.10;3.20;;;20.60;99.90;;;;;;6336709;22;20002;-74
2021/03/05 08:05:58;;;;;;;17.40;2.88;;;20.60;99.90;;;;;;6337116;22;20357;-73
2021/03/05 08:08:30;;;;;;;15.05;2.97;;;20.60;99.90;;;;;;6337286;22;20003;-73
2021/03/05 08:11:07;;;;;;;14.02;3.40;;;20.60;99.90;;;;;;6337557;22;20018;-73
2021/03/05 08:13:43;;;;;;;19.67;4.00;;;20.60;99.90;;;;;;6336413;22;20003;-73
2021/03/05 08:16:32;;;;;;;12.93;2.80;;;20.60;99.90;;;;;;6336656;22;20023;-73
2021/03/05 08:19:05;;;;;;;13.85;2.83;;;20.50;99.90;;;;;;6336858;22;20285;-75
2021/03/05 08:21:55;;;;;;;17.40;3.92;;;20.50;99.90;;;;;;6336542;22;20080;-73
2021/03/05 08:24:27;;;;;;;16.00;2.75;;;20.60;99.90;;;;;;6336946;22;20003;-74
2021/03/05 08:27:35;;;;;;;15.48;2.92;;;20.50;99.90;;;;;;6336142;22;20141;-71
2021/03/05 08:30:11;;;;;;;17.30;2.97;;;20.50;99.90;;;;;;6337519;22;19995;-74
2021/03/05 08:32:44;;;;;;;15.07;2.88;;;20.50;99.90;;;;;;6337387;22;19995;-73
2021/03/05 08:35:31;;;;;;;18.73;2.63;;;20.50;99.90;;;;;;6337175;22;20025;-73
2021/03/05 08:38:09;;;;;;;16.00;3.17;;;20.50;99.90;;;;;;6326197;22;20017;-73
2021/03/05 08:40:39;;;;;;;13.43;3.30;;;20.50;99.90;;;;;;6336567;22;20005;-73
2021/03/05 08:43:13;;;;;;;12.75;2.72;;;20.50;99.90;;;;;;6335976;22;20073;-73
2021/03/05 08:45:49;;;;;;;16.05;3.45;;;20.50;99.90;;;;;;6337247;22;20042;-73
2021/03/05 08:48:33;;;;;;;17.67;3.30;;;20.50;99.90;;;;;;6338087;22;20002;-73
2021/03/05 08:51:09;;;;;;;12.38;2.05;;;20.40;99.90;;;;;;6325945;22;20342;-73
2021/03/05 08:53:54;;;;;;;14.93;2.53;;;20.50;99.90;;;;;;6306811;22;20022;-73
2021/03/05 08:56:26;;;;;;;13.20;2.30;;;20.40;99.90;;;;;;6306588;22;20010;-72
2021/03/05 08:59:01;;;;;;;18.20;3.88;;;20.40;99.90;;;;;;6306761;22;20367;-69
2021/03/05 09:01:36;;;;;;;15.43;3.38;;;20.40;99.90;;;;;;6307317;22;20003;-69
2021/03/05 09:04:12;;;;;;;15.00;3.20;;;20.40;99.90;;;;;;6306179;22;20023;-71
2021/03/05 09:06:56;;;;;;;16.73;2.40;;;20.40;99.90;;;;;;6307696;22;20015;-70
2021/03/05 09:09:26;;;;;;;11.35;2.20;;;20.40;99.90;;;;;;6330338;22;20007;-70
2021/03/05 09:12:12;;;;;;;10.32;1.95;;;20.40;99.90;;;;;;6307559;22;19996;-70
2021/03/05 09:14:45;;;;;;;11.88;2.80;;;20.40;99.90;;;;;;6306748;22;20003;-69
2021/03/05 09:17:13;;;;;;;12.40;2.20;;;20.40;99.90;;;;;;6307606;22;20014;-70
2021/03/05 09:19:49;;;;;;;14.18;2.75;;;20.40;99.90;;;;;;6306371;22;19999;-70
2021/03/05 09:22:24;;;;;;;15.43;2.83;;;20.40;99.90;;;;;;6330670;22;20041;-70
2021/03/05 09:24:53;;;;;;;14.27;3.33;;;20.40;99.90;;;;;;6304183;22;20031;-70
2021/03/05 09:27:22;;;;;;;14.70;2.05;;;20.30;99.90;;;;;;6305124;22;20003;-70
2021/03/05 09:29:50;;;;;;;14.43;2.42;;;20.40;99.90;;;;;;6305183;22;20052;-70
2021/03/05 09:32:17;;;;;;;12.32;2.20;;;20.40;99.90;;;;;;6304870;22;20000;-69
2021/03/05 09:35:01;;;;;;;15.10;2.78;;;20.30;99.90;;;;;;6305524;22;20007;-70
2021/03/05 09:37:30;;;;;;;11.65;2.05;;;20.30;99.90;;;;;;6305429;22;20027;-70
2021/03/05 09:40:01;;;;;;;13.55;2.33;;;20.30;99.90;;;;;;6307441;22;20003;-70
2021/03/05 09:42:51;;;;;;;15.23;3.10;;;20.30;99.90;;;;;;6308102;22;20003;-70
2021/03/05 09:45:41;;;;;;;15.45;3.20;;;20.30;99.90;;;;;;6307701;22;20012;-70
2021/03/05 09:48:10;;;;;;;15.35;2.58;;;20.30;99.90;;;;;;6307635;22;19999;-70
2021/03/05 09:50:38;;;;;;;14.60;3.28;;;20.30;99.90;;;;;;6307317;22;20014;-70
2021/03/05 09:53:52;;;;;;;12.77;2.72;;;20.40;99.90;;;;;;6307405;22;20013;-71
2021/03/05 09:56:21;;;;;;;11.25;2.42;;;20.30;99.90;;;;;;6277805;22;20007;-70
2021/03/05 09:58:56;;;;;;;19.80;3.60;;;20.30;99.90;;;;;;6307188;22;19999;-70
2021/03/05 10:01:24;;;;;;;9.13;2.25;;;20.30;99.90;;;;;;6307650;22;19995;-70
2021/03/05 10:04:02;;;;;;;7.45;2.00;;;20.30;99.90;;;;;;6307140;22;20027;-70
2021/03/05 10:06:31;;;;;;;14.60;1.80;;;20.20;99.90;;;;;;6307505;22;20090;-71
2021/03/05 10:09:15;;;;;;;15.38;2.58;;;20.20;99.90;;;;;;6307550;22;19999;-69
2021/03/05 10:11:44;;;;;;;;;;;20.30;99.90;;;;;;6307788;22;20459;-69
2021/03/05 10:14:12;;;;;;;14.88;2.63;;;20.30;99.90;;;;;;6306685;22;20161;-70
2021/03/05 10:16:41;;;;;;;15.25;2.45;;;20.30;99.90;;;;;;6307126;22;20049;-70
2021/03/05 10:19:10;;;;;;;16.67;3.40;;;20.30;99.90;;;;;;6306933;22;20053;-70
2021/03/05 10:21:41;;;;;;;13.80;2.28;;;20.30;99.90;;;;;;6306959;22;20452;-70
2021/03/05 10:24:10;;;;;;;9.68;2.72;;;20.30;99.90;;;;;;6306584;22;20335;-70
2021/03/05 10:27:09;;;;;;;10.77;2.70;;;20.30;99.90;;;;;;6305378;22;20314;-70
2021/03/05 10:29:25;;;;;;;9.77;2.00;;;20.30;99.90;;;;;;6305894;22;20076;-70
2021/03/05 10:31:54;;;;;;;17.67;2.53;;;20.30;99.90;;;;;;6305710;22;20006;-70
2021/03/05 10:34:28;;;;;;;17.90;2.90;;;20.30;99.90;;;;;;6304381;22;20003;-70
2021/03/05 10:36:58;;;;;;;13.18;2.30;;;20.30;99.90;;;;;;6305577;22;20007;-70
2021/03/05 10:39:28;;;;;;;12.43;3.05;;;20.30;99.90;;;;;;6331572;22;20008;-71
2021/03/05 10:41:58;;;;;;;10.73;2.13;;;20.30;99.90;;;;;;6331714;22;20026;-71
2021/03/05 10:44:31;;;;;;;13.32;2.75;;;20.20;99.90;;;;;;6306674;22;19999;-70
2021/03/05 10:47:00;;;;;;;13.27;2.38;;;20.20;99.90;;;;;;6305784;22;20469;-71
2021/03/05 10:49:28;;;;;;;12.77;2.20;;;20.20;99.90;;;;;;6306658;22;19999;-70
2021/03/05 10:51:56;;;;;;;16.15;3.75;;;20.30;99.90;;;;;;6305913;22;20034;-70
2021/03/05 10:54:23;;;;;;;15.07;2.85;;;20.20;99.90;;;;;;6305030;22;20027;-70
2021/03/05 10:56:51;;;;;;;17.88;2.58;;;20.20;99.90;;;;;;6306370;22;20003;-70
2021/03/05 10:59:20;;;;;;;11.35;2.63;;;20.20;99.90;;;;;;6306596;22;20052;-70
2021/03/05 11:01:49;;;;;;;13.38;2.05;;;20.20;99.90;;;;;;6303533;22;20011;-71
2021/03/05 11:04:16;;;;;;;14.70;2.50;;;20.20;99.90;;;;;;6306855;22;20007;-70
2021/03/05 11:06:46;;;;;;;17.05;3.08;;;20.30;99.90;;;;;;6306427;22;20004;-71
2021/03/05 11:09:14;;;;;;;15.25;3.22;;;20.20;99.90;;;;;;6330059;22;20007;-70
2021/03/05 11:11:45;;;;;;;13.73;2.45;;;20.20;99.90;;;;;;6303581;22;20011;-70
2021/03/05 11:14:13;;;;;;;11.25;2.67;;;20.20;99.90;;;;;;6303753;22;20024;-70
2021/03/05 11:16:41;;;;;;;16.17;2.92;;;20.20;99.90;;;;;;6306082;22;19996;-71
2021/03/05 11:19:09;;;;;;;20.30;3.05;;;20.20;99.90;;;;;;6306315;22;20414;-70
2021/03/05 11:21:37;;;;;;;15.38;2.42;;;20.10;99.90;;;;;;6306190;22;20007;-69
2021/03/05 11:24:05;;;;;;;14.55;3.45;;;20.10;99.90;;;;;;6306541;22;19999;-71
2021/03/05 11:26:33;;;;;;;18.73;3.72;;;20.00;99.90;;;;;;6306235;22;20007;-71
2021/03/05 11:29:01;;;;;;;14.63;2.92;;;20.10;99.90;;;;;;6306655;22;20048;-71
2021/03/05 11:31:28;;;;;;;10.60;2.53;;;20.10;99.90;;;;;;6306669;22;20030;-70
2021/03/05 11:33:56;;;;;;;15.43;3.30;;;20.10;99.90;;;;;;6306372;22;19999;-69
2021/03/05 11:36:23;;;;;;;14.40;2.88;;;20.10;99.90;;;;;;6306978;22;20039;-70
2021/03/05 11:38:51;;;;;;;15.25;2.50;;;20.00;99.90;;;;;;6331696;22;19999;-70
2021/03/05 11:41:19;;;;;;;16.60;2.33;;;20.00;99.90;;;;;;6306792;22;20061;-70
2021/03/05 11:43:50;;;;;;;18.92;2.90;;;20.00;99.90;;;;;;6306010;22;20003;-70
2021/03/05 11:46:19;;;;;;;16.85;2.92;;;20.00;99.90;;;;;;6331263;22;20061;-70
2021/03/05 11:48:47;;;;;;;16.65;2.88;;;20.10;99.90;;;;;;6305625;22;19999;-71
2021/03/05 11:51:15;;;;;;;12.98;2.65;;;20.00;99.90;;;;;;6306475;22;20452;-70
2021/03/05 11:53:43;;;;;;;12.02;2.75;;;20.00;99.90;;;;;;6306692;22;20006;-70
2021/03/05 11:56:10;;;;;;;15.60;3.42;;;20.00;99.90;;;;;;6306758;22;20453;-70
2021/03/05 11:58:38;;;;;;;17.35;2.63;;;19.90;99.90;;;;;;6306958;22;20019;-70
2021/03/05 12:01:05;;;;;;;12.23;2.10;;;19.90;99.90;;;;;;6306727;22;19995;-70
2021/03/05 12:03:32;;;;;;;13.05;2.75;;;19.90;99.90;;;;;;6306522;22;20336;-70
2021/03/05 12:06:00;;;;;;;17.05;3.25;;;19.90;99.90;;;;;;6306529;22;20007;-70
2021/03/05 12:08:28;;;;;;;17.17;2.70;;;19.90;99.90;;;;;;6306471;22;20434;-70
2021/03/05 12:10:55;;;;;;;17.48;3.30;;;19.90;99.90;;;;;;6306509;22;19999;-70
2021/03/05 12:13:22;;;;;;;14.93;2.72;;;19.90;99.90;;;;;;6306285;22;20048;-70
2021/03/05 12:15:50;;;;;;;22.08;2.80;;;19.90;99.90;;;;;;6309832;22;20438;-67
2021/03/05 12:18:17;;;;;;;15.13;2.53;;;19.70;99.90;;;;;;6329257;22;20014;-66
2021/03/05 12:20:44;;;;;;;15.07;3.42;;;19.60;99.90;;;;;;6330650;22;20003;-66
2021/03/05 12:23:12;;;;;;;13.38;2.97;;;19.60;99.90;;;;;;6332089;22;19999;-66
2021/03/05 12:25:39;;;;;;;14.40;2.47;;;19.60;99.90;;;;;;6331837;22;20012;-66
2021/03/05 12:28:06;;;;;;;13.05;2.40;;;19.60;99.90;;;;;;6330028;22;20314;-66
2021/03/05 12:30:34;;;;;;;13.80;2.85;;;19.60;99.90;;;;;;6330403;22;20002;-65
2021/03/05 12:33:01;;;;;;;12.77;2.47;;;19.60;99.90;;;;;;6330405;22;20023;-66
2021/03/05 12:35:29;;;;;;;16.05;2.90;;;19.70;99.90;;;;;;6329413;22;19986;-66
2021/03/05 12:37:56;;;;;;;17.38;2.97;;;19.70;99.90;;;;;;6330529;22;19995;-66
2021/03/05 12:40:23;;;;;;;14.88;3.67;;;19.70;99.90;;;;;;6331411;22;19999;-66
2021/03/05 12:42:55;;;;;;;18.88;2.88;;;19.80;99.90;;;;;;6331833;22;20027;-66
2021/03/05 12:45:22;;;;;;;10.27;2.47;;;19.70;99.90;;;;;;6329505;22;20094;-66
2021/03/05 12:47:51;;;;;;;12.05;2.13;;;19.60;99.90;;;;;;6332348;22;19991;-66
2021/03/05 12:50:18;;;;;;;18.95;4.40;;;19.60;99.90;;;;;;6330964;22;20004;-66
2021/03/05 12:52:45;;;;;;;16.90;2.60;;;19.50;99.90;;;;;;6331330;22;19996;-66
2021/03/05 12:55:14;;;;;;;18.15;2.60;;;19.50;99.90;;;;;;6330011;22;20021;-67
2021/03/05 12:57:41;;;;;;;17.30;2.88;;;19.60;99.90;;;;;;6350208;22;20003;-66
2021/03/05 13:00:09;;;;;;;14.90;4.40;;;19.70;99.90;;;;;;6325900;22;20059;-66